»·PEaware :: N224LW KSMX-KTOA

N224LW :: KSMX-KTOA

FLIGHT INFORMATION

Flight Status: Arrived
Operator: Privately registered:
United States
More flights under this callsign
Pilot: Rod Tataryn (6553)
Aircraft: Unknown
(S22T)
More flights by this aircraft type
Origin: KSMX Santa Maria Pub/Capt Hancock
United States
Destination: KTOA Zamperini
United States
More flights between these airports :: More routes between these airports
Route: +RZS V186 ADAMM V394 SLI
File this flight plan on PilotEdge
Remarks: TEC Route SBAN40
Altitude:
(Current/Filed)
7,000ft
Speed:
(Current/Filed)
180kts
Departed: 10-Jun-17 03:56 PM
Arrived: 10-Jun-17 05:15 PM
Distance/Time
Traveled:
123nm/1:19
Distance/Time
To Go:
Arrived

Flight Plot

Page will automatically refresh every two minutes.

Flight plan parsing failed; only flown route is shown


Map Options




Map Legend


Flown Route
Filed Route
Departure Airport
Arrival Airport
Navaid (VOR, NDB)
Fix

Horizontal Profiles

Position Reports

Time Latitude Longitude Heading Altitude Ground
Speed
10-Jun-17 15:50 34.900499 -120.451024 334 263ft 0kts
10-Jun-17 15:51 34.900499 -120.451024 334 263ft 0kts
10-Jun-17 15:52 34.900499 -120.451024 334 263ft 0kts
10-Jun-17 15:53 34.900499 -120.451024 334 263ft 0kts
10-Jun-17 15:54 34.900499 -120.451024 334 263ft 0kts
10-Jun-17 15:55 34.900499 -120.451024 334 263ft 0kts
10-Jun-17 15:56 34.898169 -120.449772 135 263ft 21kts
10-Jun-17 15:57 34.893694 -120.445250 181 263ft 14kts
10-Jun-17 15:58 34.893697 -120.446972 315 263ft 47kts
10-Jun-17 15:59 34.911407 -120.450494 82 1434ft 125kts
10-Jun-17 16:00 34.898959 -120.408846 111 2823ft 144kts
10-Jun-17 16:01 34.884051 -120.364740 111 4358ft 140kts
10-Jun-17 16:02 34.862963 -120.326285 131 5729ft 144kts
10-Jun-17 16:03 34.837629 -120.287446 128 7005ft 156kts
10-Jun-17 16:04 34.807344 -120.239541 128 7005ft 190kts
10-Jun-17 16:05 34.774342 -120.187289 128 6977ft 198kts
10-Jun-17 16:06 34.740632 -120.133962 128 6977ft 199kts
10-Jun-17 16:07 34.706814 -120.080539 128 6977ft 199kts
10-Jun-17 16:08 34.672893 -120.027031 128 6977ft 199kts
10-Jun-17 16:09 34.639048 -119.973715 128 6977ft 199kts
10-Jun-17 16:10 34.605133 -119.920402 128 6978ft 200kts
10-Jun-17 16:11 34.571224 -119.867181 128 6978ft 199kts
10-Jun-17 16:12 34.537382 -119.814121 128 6978ft 199kts
10-Jun-17 16:13 34.503976 -119.760512 123 6978ft 199kts
10-Jun-17 16:14 34.473560 -119.704505 123 6978ft 199kts
10-Jun-17 16:15 34.448156 -119.657680 123 6979ft 199kts
10-Jun-17 16:16 34.412579 -119.592196 123 6979ft 199kts
10-Jun-17 16:17 34.382058 -119.536153 123 6979ft 199kts
10-Jun-17 16:18 34.351523 -119.480139 123 6979ft 199kts
10-Jun-17 16:19 34.321007 -119.424284 123 6980ft 199kts
10-Jun-17 16:20 34.320178 -119.359674 81 6980ft 196kts
10-Jun-17 16:21 34.324331 -119.305539 82 6977ft 196kts
10-Jun-17 16:22 34.330110 -119.229502 82 6986ft 195kts
10-Jun-17 16:23 34.335054 -119.163989 82 6987ft 195kts
10-Jun-17 16:24 34.339942 -119.098474 82 6987ft 195kts
10-Jun-17 16:25 34.344003 -119.043794 82 6987ft 196kts
10-Jun-17 16:26 34.348847 -118.978127 82 6987ft 196kts
10-Jun-17 16:27 34.354423 -118.901685 81 6987ft 195kts
10-Jun-17 16:28 34.342925 -118.838339 109 6987ft 197kts
10-Jun-17 16:29 34.323460 -118.776500 109 6987ft 198kts
10-Jun-17 16:30 34.303793 -118.714048 109 6988ft 199kts
10-Jun-17 16:31 34.287413 -118.662105 109 6988ft 199kts
10-Jun-17 16:32 34.267723 -118.599774 109 6988ft 199kts
10-Jun-17 16:33 34.248597 -118.539376 109 7015ft 198kts
10-Jun-17 16:34 34.228787 -118.476918 109 7016ft 199kts
10-Jun-17 16:35 34.208937 -118.414400 109 7016ft 200kts
10-Jun-17 16:36 34.189028 -118.351876 109 6990ft 201kts
10-Jun-17 16:37 34.169042 -118.289225 110 6987ft 200kts
10-Jun-17 16:38 34.149036 -118.226677 110 6987ft 200kts
10-Jun-17 16:39 34.129063 -118.164387 110 6987ft 200kts
10-Jun-17 16:40 34.108949 -118.101795 110 7006ft 200kts
10-Jun-17 16:41 34.088741 -118.039002 110 7006ft 201kts
10-Jun-17 16:42 34.068556 -117.976415 110 7018ft 200kts
10-Jun-17 16:43 34.048344 -117.913842 110 7015ft 200kts
10-Jun-17 16:44 34.028060 -117.851208 110 7016ft 200kts
10-Jun-17 16:45 33.987196 -117.830024 204 7017ft 188kts
10-Jun-17 16:46 33.938392 -117.853175 206 7015ft 189kts
10-Jun-17 16:47 33.889428 -117.876926 206 6441ft 192kts
10-Jun-17 16:48 33.840207 -117.900814 205 5540ft 191kts
10-Jun-17 16:49 33.810692 -117.945002 256 4641ft 178kts
10-Jun-17 16:50 33.796220 -118.000979 255 4019ft 165kts
10-Jun-17 16:51 33.783774 -118.048451 256 4011ft 147kts
10-Jun-17 16:52 33.785299 -118.095140 277 4012ft 139kts
10-Jun-17 16:53 33.784667 -118.140571 231 4013ft 145kts
10-Jun-17 16:54 33.752740 -118.171243 222 3883ft 155kts
10-Jun-17 16:55 33.717419 -118.204931 222 3008ft 150kts
10-Jun-17 16:56 33.688234 -118.231879 222 3008ft 120kts
10-Jun-17 16:57 33.658962 -118.227128 103 3019ft 149kts
10-Jun-17 16:58 33.647934 -118.177690 102 3013ft 156kts
10-Jun-17 16:59 33.637065 -118.128729 102 3010ft 143kts
10-Jun-17 17:00 33.627009 -118.084061 102 3012ft 135kts
10-Jun-17 17:01 33.617252 -118.040946 102 3012ft 132kts
10-Jun-17 17:02 33.607615 -117.998444 102 3013ft 132kts
10-Jun-17 17:03 33.598789 -117.956055 79 3012ft 128kts
10-Jun-17 17:04 33.619126 -117.957187 291 3016ft 108kts
10-Jun-17 17:05 33.629772 -117.993002 291 3016ft 124kts
10-Jun-17 17:06 33.641942 -118.033534 291 3014ft 132kts
10-Jun-17 17:07 33.654609 -118.075572 291 3013ft 134kts
10-Jun-17 17:08 33.667325 -118.117915 287 3012ft 135kts
10-Jun-17 17:09 33.682136 -118.156510 309 3013ft 134kts
10-Jun-17 17:10 33.703048 -118.187889 309 3010ft 108kts
10-Jun-17 17:11 33.722015 -118.216335 309 2859ft 109kts
10-Jun-17 17:12 33.740560 -118.243646 306 2227ft 103kts
10-Jun-17 17:13 33.758084 -118.269948 305 1619ft 98kts
10-Jun-17 17:14 33.774665 -118.295019 305 1047ft 94kts
10-Jun-17 17:15 33.789970 -118.318186 305 509ft 79kts
10-Jun-17 17:16 33.802117 -118.336678 305 106ft 51kts
10-Jun-17 17:17 33.805986 -118.344226 286 105ft 0kts
10-Jun-17 17:18 33.805986 -118.344226 286 105ft 0kts
10-Jun-17 17:19 33.804157 -118.346465 217 105ft 11kts

Navigation Log

Ident Type
Flight plan parsing failed, navigation log unavailable